Dawson Community Airport


Codes: KGDV/GDV
Name: Dawson Community Airport
City: Glendive
Country: United States
Elevation: 2458 ft.

Photos at Dawson Community Airport


   Photos courtesy of SpottingLog. You can add your own sightings and photos by signing up for a free trial today.



No photos found.

Weather at Dawson Community Airport


Time (UTC)DescriptionTempratureWindCloud coverageVisibilityPressureHumidity
25-Jun-2024 21:00Clear Sky29°C13 mph, NW0%10000m1014hPa23%
26-Jun-2024 00:00Clear Sky28°C20 mph, NW1%10000m1013hPa24%
26-Jun-2024 03:00Clear Sky23°C13 mph, N3%10000m1015hPa34%
26-Jun-2024 06:00Clear Sky17°C11 mph, N2%10000m1018hPa49%
26-Jun-2024 09:00Clear Sky13°C7 mph, N0%10000m1019hPa68%
26-Jun-2024 12:00Clear Sky12°C2 mph, N0%10000m1020hPa81%
26-Jun-2024 15:00Clear Sky16°C4 mph, NE0%10000m1018hPa64%
26-Jun-2024 18:00Clear Sky21°C4 mph, E10%10000m1016hPa43%
26-Jun-2024 21:00Broken Clouds25°C4 mph, E54%10000m1012hPa30%
27-Jun-2024 00:00Scattered Clouds27°C7 mph, E28%10000m1008hPa27%
27-Jun-2024 03:00Clear Sky22°C13 mph, E0%10000m1007hPa42%
27-Jun-2024 06:00Scattered Clouds19°C11 mph, E42%10000m1007hPa58%
27-Jun-2024 09:00Overcast Clouds19°C7 mph, SE100%10000m1003hPa64%
27-Jun-2024 12:00Broken Clouds20°C7 mph, SE83%10000m1001hPa77%
27-Jun-2024 15:00Clear Sky26°C7 mph, W2%10000m999hPa48%
27-Jun-2024 18:00Broken Clouds30°C7 mph, NW52%10000m997hPa34%
27-Jun-2024 21:00Broken Clouds31°C4 mph, N52%10000m994hPa30%
28-Jun-2024 00:00Heavy Intensity Rain18°C40 mph, NW60%1183m997hPa89%
28-Jun-2024 03:00Moderate Rain18°C18 mph, NW83%10000m998hPa69%
28-Jun-2024 06:00Broken Clouds18°C11 mph, NW58%10000m1000hPa70%
28-Jun-2024 09:00Broken Clouds16°C18 mph, W84%10000m1001hPa62%
28-Jun-2024 12:00Light Rain15°C20 mph, W85%10000m1002hPa56%
28-Jun-2024 15:00Clear Sky16°C25 mph, W6%10000m1004hPa54%
28-Jun-2024 18:00Scattered Clouds19°C22 mph, W30%10000m1003hPa49%
28-Jun-2024 21:00Light Rain18°C25 mph, NW73%10000m1004hPa59%
29-Jun-2024 00:00Light Rain12°C20 mph, N86%10000m1013hPa73%
29-Jun-2024 03:00Overcast Clouds11°C13 mph, N100%10000m1018hPa72%
29-Jun-2024 06:00Broken Clouds9°C2 mph, NW73%10000m1021hPa83%
29-Jun-2024 09:00Scattered Clouds9°C2 mph, SW46%10000m1021hPa83%
29-Jun-2024 12:00Broken Clouds10°C4 mph, S51%10000m1022hPa76%
29-Jun-2024 15:00Broken Clouds14°C7 mph, S61%10000m1022hPa59%
29-Jun-2024 18:00Scattered Clouds18°C4 mph, SE36%10000m1020hPa46%
29-Jun-2024 21:00Overcast Clouds21°C7 mph, SE100%10000m1018hPa37%
30-Jun-2024 00:00Overcast Clouds22°C13 mph, SE100%10000m1017hPa35%
30-Jun-2024 03:00Broken Clouds17°C13 mph, E84%10000m1017hPa46%
30-Jun-2024 06:00Broken Clouds14°C13 mph, E66%10000m1018hPa46%
30-Jun-2024 09:00Broken Clouds14°C13 mph, SE84%10000m1016hPa45%
30-Jun-2024 12:00Overcast Clouds14°C13 mph, SE91%10000m1014hPa52%
30-Jun-2024 15:00Overcast Clouds18°C16 mph, SE89%10000m1012hPa59%
30-Jun-2024 18:00Broken Clouds25°C16 mph, SE64%10000m1009hPa48%